DAL2525 KLWB-KROA
Flight info
| Callsign | DAL2525 |
|---|---|
| Flight time | 0h 18m |
| Altitude | 7000 |
| Route | ROA |
| Aircraft | E110/L-SDFGHRY/S |
Departure
| Time | 2026-04-29 07:44 |
|---|---|
| Airport | Greenbrier Valley Airport (KLWB) |
Arrival
| Time | 2026-04-29 08:02 |
|---|---|
| Airport | Roanoke–Blacksburg Regional Airport (KROA) |
| Time | Latitude | Longitude | Altitude | Speed | Heading |
|---|---|---|---|---|---|
| 2026-04-29 07:37 | 37.85669 | -80.40326 | 2294 ft | 0 kts | 127° |
| 2026-04-29 07:41 | 37.85667 | -80.40322 | 2294 ft | 3 kts | 127° |
| 2026-04-29 07:42 | 37.85639 | -80.40275 | 2294 ft | 9 kts | 126° |
| 2026-04-29 07:42 | 37.85608 | -80.40193 | 2295 ft | 11 kts | 92° |
| 2026-04-29 07:42 | 37.85661 | -80.40109 | 2303 ft | 14 kts | 33° |
| 2026-04-29 07:42 | 37.85751 | -80.40037 | 2296 ft | 13 kts | 11° |
| 2026-04-29 07:43 | 37.85752 | -80.40025 | 2304 ft | 1 kts | 206° |
| 2026-04-29 07:43 | 37.85679 | -80.40095 | 2298 ft | 48 kts | 217° |
| 2026-04-29 07:44 | 37.85151 | -80.40581 | 2345 ft | 128 kts | 217° |
| 2026-04-29 07:44 | 37.84273 | -80.41168 | 2540 ft | 156 kts | 199° |
| 2026-04-29 07:44 | 37.83260 | -80.41856 | 2734 ft | 177 kts | 217° |
| 2026-04-29 07:44 | 37.82259 | -80.42866 | 2926 ft | 191 kts | 219° |
| 2026-04-29 07:45 | 37.81142 | -80.43846 | 3117 ft | 200 kts | 203° |
| 2026-04-29 07:45 | 37.79762 | -80.44180 | 3305 ft | 205 kts | 180° |
| 2026-04-29 07:45 | 37.78365 | -80.43789 | 3497 ft | 208 kts | 156° |
| 2026-04-29 07:45 | 37.77202 | -80.42700 | 3683 ft | 210 kts | 132° |
| 2026-04-29 07:46 | 37.76488 | -80.41126 | 3873 ft | 211 kts | 111° |
| 2026-04-29 07:46 | 37.75979 | -80.39376 | 4075 ft | 211 kts | 111° |
| 2026-04-29 07:46 | 37.75461 | -80.37639 | 4270 ft | 211 kts | 111° |
| 2026-04-29 07:46 | 37.74940 | -80.35901 | 4467 ft | 211 kts | 111° |
| 2026-04-29 07:47 | 37.74422 | -80.34166 | 4666 ft | 211 kts | 111° |
| 2026-04-29 07:47 | 37.73902 | -80.32429 | 4867 ft | 211 kts | 112° |
| 2026-04-29 07:47 | 37.73381 | -80.30688 | 4993 ft | 215 kts | 112° |
| 2026-04-29 07:47 | 37.72843 | -80.28900 | 4994 ft | 220 kts | 111° |
| 2026-04-29 07:48 | 37.72311 | -80.27119 | 4993 ft | 223 kts | 111° |
| 2026-04-29 07:48 | 37.71752 | -80.25259 | 4994 ft | 229 kts | 112° |
| 2026-04-29 07:48 | 37.71181 | -80.23370 | 4996 ft | 232 kts | 112° |
| 2026-04-29 07:48 | 37.70607 | -80.21461 | 4997 ft | 233 kts | 111° |
| 2026-04-29 07:49 | 37.70031 | -80.19543 | 4997 ft | 234 kts | 112° |
| 2026-04-29 07:49 | 37.69452 | -80.17620 | 4999 ft | 234 kts | 111° |
| 2026-04-29 07:49 | 37.68872 | -80.15695 | 5000 ft | 235 kts | 112° |
| 2026-04-29 07:49 | 37.68292 | -80.13769 | 5000 ft | 235 kts | 111° |
| 2026-04-29 07:50 | 37.67710 | -80.11837 | 4999 ft | 235 kts | 112° |
| 2026-04-29 07:50 | 37.67127 | -80.09912 | 4999 ft | 235 kts | 111° |
| 2026-04-29 07:50 | 37.66547 | -80.07986 | 5000 ft | 235 kts | 112° |
| 2026-04-29 07:50 | 37.65963 | -80.06057 | 4999 ft | 235 kts | 112° |
| 2026-04-29 07:51 | 37.65578 | -80.04781 | 4998 ft | 235 kts | 112° |
| 2026-04-29 07:51 | 37.64996 | -80.02858 | 4999 ft | 235 kts | 112° |
| 2026-04-29 07:51 | 37.64223 | -80.00306 | 4998 ft | 235 kts | 112° |
| 2026-04-29 07:51 | 37.63640 | -79.98383 | 4998 ft | 235 kts | 112° |
| 2026-04-29 07:52 | 37.63056 | -79.96459 | 4998 ft | 235 kts | 112° |
| 2026-04-29 07:52 | 37.62473 | -79.94536 | 4997 ft | 235 kts | 112° |
| 2026-04-29 07:52 | 37.62078 | -79.93238 | 4997 ft | 235 kts | 112° |
| 2026-04-29 07:52 | 37.61495 | -79.91314 | 4994 ft | 235 kts | 112° |
| 2026-04-29 07:53 | 37.60907 | -79.89384 | 4943 ft | 237 kts | 112° |
| 2026-04-29 07:53 | 37.60316 | -79.87443 | 4890 ft | 237 kts | 112° |
| 2026-04-29 07:53 | 37.59730 | -79.85521 | 4842 ft | 238 kts | 112° |
| 2026-04-29 07:53 | 37.59138 | -79.83576 | 4792 ft | 238 kts | 112° |
| 2026-04-29 07:54 | 37.58544 | -79.81626 | 4717 ft | 239 kts | 112° |
| 2026-04-29 07:54 | 37.57947 | -79.79671 | 4641 ft | 239 kts | 112° |
| 2026-04-29 07:54 | 37.57349 | -79.77715 | 4566 ft | 239 kts | 112° |
| 2026-04-29 07:54 | 37.56576 | -79.75878 | 4492 ft | 238 kts | 129° |
| 2026-04-29 07:55 | 37.55367 | -79.74454 | 4398 ft | 238 kts | 147° |
| 2026-04-29 07:55 | 37.53872 | -79.73581 | 4308 ft | 238 kts | 165° |
| 2026-04-29 07:55 | 37.52244 | -79.73321 | 4217 ft | 237 kts | 179° |
| 2026-04-29 07:55 | 37.50591 | -79.73251 | 4116 ft | 237 kts | 178° |
| 2026-04-29 07:56 | 37.48940 | -79.73156 | 4016 ft | 238 kts | 178° |
| 2026-04-29 07:56 | 37.47288 | -79.73076 | 3916 ft | 238 kts | 179° |
| 2026-04-29 07:56 | 37.45635 | -79.72996 | 3815 ft | 238 kts | 179° |
| 2026-04-29 07:56 | 37.43980 | -79.72928 | 3721 ft | 237 kts | 182° |
| 2026-04-29 07:57 | 37.42375 | -79.73349 | 3606 ft | 234 kts | 202° |
| 2026-04-29 07:57 | 37.41058 | -79.74296 | 3506 ft | 206 kts | 219° |
| 2026-04-29 07:57 | 37.40103 | -79.75523 | 3507 ft | 190 kts | 234° |
| 2026-04-29 07:57 | 37.39468 | -79.76933 | 3504 ft | 183 kts | 248° |
| 2026-04-29 07:58 | 37.39105 | -79.78424 | 3500 ft | 179 kts | 254° |
| 2026-04-29 07:58 | 37.38760 | -79.79922 | 3494 ft | 178 kts | 253° |
| 2026-04-29 07:58 | 37.38418 | -79.81414 | 3493 ft | 174 kts | 254° |
| 2026-04-29 07:58 | 37.38099 | -79.82823 | 3493 ft | 162 kts | 254° |
| 2026-04-29 07:59 | 37.37793 | -79.84175 | 3353 ft | 157 kts | 254° |
| 2026-04-29 07:59 | 37.37503 | -79.85458 | 3152 ft | 150 kts | 254° |
| 2026-04-29 07:59 | 37.37219 | -79.86702 | 2955 ft | 147 kts | 254° |
| 2026-04-29 07:59 | 37.36947 | -79.87918 | 2764 ft | 140 kts | 254° |
| 2026-04-29 08:00 | 37.36683 | -79.89066 | 2577 ft | 135 kts | 253° |
| 2026-04-29 08:00 | 37.36432 | -79.90156 | 2409 ft | 123 kts | 253° |
| 2026-04-29 08:00 | 37.36205 | -79.91155 | 2248 ft | 113 kts | 253° |
| 2026-04-29 08:00 | 37.35996 | -79.92073 | 2100 ft | 107 kts | 253° |
| 2026-04-29 08:01 | 37.35776 | -79.92958 | 1958 ft | 105 kts | 246° |
| 2026-04-29 08:01 | 37.35393 | -79.93733 | 1819 ft | 104 kts | 232° |
| 2026-04-29 08:01 | 37.34920 | -79.94420 | 1681 ft | 104 kts | 230° |
| 2026-04-29 08:01 | 37.34458 | -79.95106 | 1539 ft | 102 kts | 230° |
| 2026-04-29 08:02 | 37.34000 | -79.95785 | 1413 ft | 102 kts | 230° |
| 2026-04-29 08:02 | 37.33541 | -79.96463 | 1272 ft | 101 kts | 230° |
| 2026-04-29 08:02 | 37.33134 | -79.97062 | 1161 ft | 80 kts | 230° |
| 2026-04-29 08:02 | 37.32949 | -79.97336 | 1160 ft | 9 kts | 225° |
| 2026-04-29 08:03 | 37.32896 | -79.97404 | 1161 ft | 7 kts | 230° |
| 2026-04-29 08:03 | 37.32855 | -79.97468 | 1161 ft | 12 kts | 229° |
| 2026-04-29 08:03 | 37.32792 | -79.97560 | 1160 ft | 15 kts | 225° |
| 2026-04-29 08:03 | 37.32703 | -79.97550 | 1161 ft | 15 kts | 123° |
| 2026-04-29 08:04 | 37.32738 | -79.97447 | 1161 ft | 15 kts | 48° |
| 2026-04-29 08:04 | 37.32772 | -79.97406 | 1162 ft | 5 kts | 48° |
| 2026-04-29 08:04 | 37.32809 | -79.97350 | 1161 ft | 12 kts | 40° |
| 2026-04-29 08:04 | 37.32874 | -79.97263 | 1161 ft | 16 kts | 46° |
| 2026-04-29 08:05 | 37.32939 | -79.97171 | 1161 ft | 11 kts | 53° |
| 2026-04-29 08:05 | 37.32913 | -79.97097 | 1162 ft | 9 kts | 144° |
| 2026-04-29 08:05 | 37.32904 | -79.97089 | 1162 ft | 0 kts | 147° |